Time;durP1;ratioP1;P1;durP2;ratioP2;P2;SDS_P1;SDS_P2;PMS_P1;PMS_P2;Temp;Humidity;BMP_temperature;BMP_pressure;BME280_temperature;BME280_humidity;BME280_pressure;Samples;Min_cycle;Max_cycle;Signal;HPM_P1;HPM_P2
2022/06/30 00:01:56;;;;;;;3.05;1.20;;;;;;;20.05;90.10;94206.16;4978904;28;20038;-93
2022/06/30 00:04:21;;;;;;;6.50;1.65;;;;;;;19.85;94.50;94221.06;4961702;28;20042;-94
2022/06/30 00:06:47;;;;;;;7.30;1.52;;;;;;;19.81;100.00;94214.09;4961793;28;20041;-94
2022/06/30 00:09:12;;;;;;;5.53;1.23;;;;;;;19.39;89.35;94209.66;4978828;28;20093;-96
2022/06/30 00:11:37;;;;;;;4.45;0.95;;;;;;;19.47;82.08;94203.47;4945695;28;20042;-94
2022/06/30 00:14:03;;;;;;;7.88;1.25;;;;;;;19.34;82.76;94208.75;4978837;28;20150;-94
2022/06/30 00:16:29;;;;;;;9.40;1.50;;;;;;;19.26;87.70;94206.16;4979163;28;20035;-94
2022/06/30 00:18:54;;;;;;;9.70;1.30;;;;;;;19.09;91.86;94207.13;4961538;28;20104;-95
2022/06/30 00:21:20;;;;;;;6.45;1.35;;;;;;;19.12;86.57;94201.16;4961461;28;20034;-94
2022/06/30 00:23:45;;;;;;;6.95;1.50;;;;;;;19.22;84.39;94198.06;4977348;28;20046;-94
2022/06/30 00:26:11;;;;;;;3.38;1.20;;;;;;;19.18;82.97;94207.81;4961630;28;20336;-94
2022/06/30 00:28:36;;;;;;;5.40;1.13;;;;;;;19.23;82.89;94207.63;4945859;28;20042;-95
2022/06/30 00:31:02;;;;;;;6.47;1.27;;;;;;;19.16;82.60;94200.19;4961283;28;20037;-93
2022/06/30 00:33:27;;;;;;;4.97;1.63;;;;;;;19.07;83.65;94204.78;4961491;28;20041;-93
2022/06/30 00:35:53;;;;;;;7.07;1.42;;;;;;;19.12;91.58;94199.25;4961731;28;20031;-94
2022/06/30 00:38:18;;;;;;;3.08;1.00;;;;;;;18.89;92.57;94202.22;4961389;28;20142;-94
2022/06/30 00:40:45;;;;;;;6.50;1.30;;;;;;;18.67;86.15;94197.22;4945703;28;20066;-94
2022/06/30 00:43:12;;;;;;;3.80;1.27;;;;;;;18.96;81.78;94206.22;4962309;28;20058;-94
2022/06/30 00:45:42;;;;;;;3.88;1.33;;;;;;;18.84;89.81;94205.06;4961236;28;20098;-93
2022/06/30 00:48:08;;;;;;;6.30;1.42;;;;;;;18.85;81.95;94206.63;4961258;28;20038;-94
2022/06/30 00:50:34;;;;;;;4.80;1.08;;;;;;;18.54;91.43;94199.81;4961385;28;20031;-94
2022/06/30 00:53:03;;;;;;;6.63;1.23;;;;;;;18.58;92.69;94194.63;4961234;28;20085;-94
2022/06/30 00:55:30;;;;;;;4.32;1.35;;;;;;;18.64;87.30;94198.66;4960955;28;20428;-94
2022/06/30 00:57:56;;;;;;;9.15;1.25;;;;;;;18.61;84.47;94199.28;4961444;28;20093;-95
2022/06/30 01:00:21;;;;;;;5.80;1.42;;;;;;;18.63;87.09;94203.19;4960915;28;20119;-94
2022/06/30 01:02:47;;;;;;;3.30;1.13;;;;;;;18.39;92.31;94218.94;4960843;28;20042;-94
2022/06/30 01:05:12;;;;;;;4.75;1.20;;;;;;;18.32;86.35;94222.09;4960949;28;20093;-93
2022/06/30 01:07:39;;;;;;;9.80;1.30;;;;;;;18.28;78.73;94224.59;4960981;28;20041;-92
2022/06/30 01:12:49;;;;;;;3.53;1.27;;;;;;;18.12;90.56;94223.56;4978127;28;20352;-94
2022/06/30 01:15:16;;;;;;;4.95;1.33;;;;;;;17.77;93.72;94219.13;4945373;28;20026;-93
2022/06/30 01:17:43;;;;;;;7.35;1.13;;;;;;;17.92;73.40;94221.28;4960726;28;20027;-93
2022/06/30 01:20:09;;;;;;;5.80;1.10;;;;;;;18.06;78.14;94228.28;4944627;28;20030;-94
2022/06/30 01:22:35;;;;;;;2.60;0.93;;;;;;;18.09;76.19;94228.41;4960900;28;20027;-94
2022/06/30 01:25:01;;;;;;;3.00;0.70;;;;;;;18.08;80.33;94224.22;4960983;28;20038;-94
2022/06/30 01:27:26;;;;;;;4.65;0.88;;;;;;;18.09;73.07;94211.75;4960933;28;20026;-94
2022/06/30 01:29:52;;;;;;;2.40;0.77;;;;;;;18.43;68.04;94215.31;4962295;28;20090;-94
2022/06/30 01:32:18;;;;;;;5.97;1.10;;;;;;;18.56;64.32;94212.75;4961439;28;20113;-93
2022/06/30 01:34:43;;;;;;;3.10;0.82;;;;;;;18.53;64.73;94213.41;4961079;28;20090;-93
2022/06/30 01:37:09;;;;;;;3.55;1.13;;;;;;;18.42;68.22;94224.38;4960752;28;20420;-95
2022/06/30 01:39:34;;;;;;;3.35;0.90;;;;;;;18.07;77.01;94221.88;4977852;28;20030;-95
2022/06/30 01:42:01;;;;;;;3.92;0.85;;;;;;;17.81;72.29;94217.44;4960992;28;20045;-94
2022/06/30 01:44:27;;;;;;;2.75;0.68;;;;;;;18.11;58.85;94224.66;4948950;28;20037;-95
2022/06/30 01:46:52;;;;;;;2.97;0.73;;;;;;;18.28;58.56;94221.19;4965435;28;20030;-94
2022/06/30 01:49:18;;;;;;;3.30;0.90;;;;;;;18.28;59.44;94219.28;4981805;28;20047;-93
2022/06/30 01:51:43;;;;;;;1.40;0.70;;;;;;;18.30;56.53;94221.63;4948493;28;20030;-94
2022/06/30 01:54:09;;;;;;;4.57;0.90;;;;;;;18.35;56.04;94210.81;4965377;28;20085;-95
2022/06/30 01:56:35;;;;;;;4.88;0.82;;;;;;;18.47;60.20;94226.06;4964355;28;20026;-95
2022/06/30 01:59:01;;;;;;;2.58;0.90;;;;;;;18.15;59.79;94215.00;4981423;28;20411;-95
2022/06/30 02:01:27;;;;;;;1.73;0.90;;;;;;;17.97;62.02;94225.63;4963853;28;20114;-94
2022/06/30 02:03:52;;;;;;;5.68;0.82;;;;;;;17.94;63.37;94219.09;4948404;28;20035;-95
2022/06/30 02:06:17;;;;;;;2.10;0.70;;;;;;;17.90;58.95;94222.69;4948186;28;20345;-95
2022/06/30 02:08:43;;;;;;;4.13;0.70;;;;;;;18.02;59.12;94222.84;4964054;28;20038;-94
2022/06/30 02:11:08;;;;;;;3.15;0.90;;;;;;;18.06;56.28;94226.41;4948222;28;20031;-93
2022/06/30 02:13:34;;;;;;;4.30;0.70;;;;;;;17.90;60.19;94234.06;4947689;28;20034;-94
2022/06/30 02:15:59;;;;;;;2.20;0.80;;;;;;;17.88;58.40;94230.19;4963994;28;20031;-94
2022/06/30 02:18:25;;;;;;;4.18;1.00;;;;;;;17.93;56.78;94230.81;4964126;28;20030;-94
2022/06/30 02:20:50;;;;;;;1.33;0.63;;;;;;;17.95;57.09;94235.78;4963546;28;20034;-95
2022/06/30 02:23:16;;;;;;;1.92;0.60;;;;;;;17.85;55.06;94228.94;4963912;28;20451;-94
2022/06/30 02:25:42;;;;;;;1.83;0.70;;;;;;;17.75;56.28;94232.72;4947815;28;20026;-94
2022/06/30 02:28:08;;;;;;;4.05;0.70;;;;;;;17.93;56.02;94232.66;4964270;28;20082;-94
2022/06/30 02:30:34;;;;;;;4.13;0.73;;;;;;;17.80;55.53;94237.84;4947664;28;20109;-94
2022/06/30 02:33:00;;;;;;;2.50;0.90;;;;;;;17.80;55.75;94242.38;4947512;28;20030;-95
2022/06/30 02:35:25;;;;;;;3.30;0.70;;;;;;;18.06;48.84;94229.06;4964220;28;20545;-92
2022/06/30 02:37:51;;;;;;;1.15;0.52;;;;;;;18.17;47.88;94226.06;4947874;28;20027;-92
2022/06/30 02:40:16;;;;;;;2.17;0.60;;;;;;;18.56;45.51;94228.69;4948325;28;20035;-94
2022/06/30 02:42:43;;;;;;;0.90;0.60;;;;;;;18.39;48.18;94235.63;4947443;28;20038;-95
2022/06/30 02:45:09;;;;;;;2.45;0.80;;;;;;;18.17;47.94;94228.72;4963484;28;20034;-95
2022/06/30 02:47:42;;;;;;;3.00;0.70;;;;;;;18.03;47.06;94236.88;4947325;28;20081;-95
2022/06/30 02:50:09;;;;;;;4.47;0.65;;;;;;;17.98;48.25;94235.13;4947526;28;20113;-95
2022/06/30 02:52:36;;;;;;;2.05;0.65;;;;;;;17.90;51.14;94244.66;4947347;28;20023;-94
2022/06/30 02:55:02;;;;;;;8.18;1.27;;;;;;;17.81;51.55;94234.09;4947244;28;20022;-94
2022/06/30 02:57:28;;;;;;;2.13;0.90;;;;;;;17.80;51.50;94231.78;4963651;28;20023;-95
2022/06/30 02:59:54;;;;;;;3.63;0.52;;;;;;;17.76;50.38;94228.19;4979927;28;20436;-94
2022/06/30 03:02:20;;;;;;;1.60;0.50;;;;;;;17.90;47.09;94226.13;4962784;28;20030;-93
2022/06/30 03:04:45;;;;;;;2.92;0.70;;;;;;;18.02;46.02;94225.50;4963028;28;20053;-94
2022/06/30 03:07:11;;;;;;;1.02;0.60;;;;;;;18.13;50.65;94231.22;4964542;28;20026;-95
2022/06/30 03:09:36;;;;;;;3.40;0.60;;;;;;;18.09;53.76;94230.31;4962937;28;20061;-96
2022/06/30 03:12:02;;;;;;;3.70;0.88;;;;;;;17.88;50.28;94225.66;4972338;28;20019;-94
2022/06/30 03:14:28;;;;;;;3.47;0.68;;;;;;;17.86;51.32;94233.16;4981392;28;20076;-95
2022/06/30 03:16:54;;;;;;;2.67;0.85;;;;;;;18.07;47.12;94227.19;4964192;28;20023;-92
2022/06/30 03:19:19;;;;;;;2.65;0.90;;;;;;;18.36;45.56;94221.13;4963279;28;20027;-94
2022/06/30 03:21:45;;;;;;;3.95;0.88;;;;;;;18.36;46.62;94223.00;4979887;28;20038;-94
2022/06/30 03:24:10;;;;;;;4.15;1.00;;;;;;;17.96;49.41;94218.78;4980407;28;20026;-95
2022/06/30 03:26:36;;;;;;;3.78;0.70;;;;;;;17.99;50.61;94227.97;4946892;28;20096;-94
2022/06/30 03:29:03;;;;;;;3.90;0.93;;;;;;;17.87;52.21;94229.41;4962508;28;20029;-95
2022/06/30 03:31:29;;;;;;;6.47;0.85;;;;;;;17.70;51.96;94238.16;4962647;28;20022;-94
2022/06/30 03:33:54;;;;;;;1.92;0.60;;;;;;;17.56;52.17;94226.97;4946842;28;20085;-95
2022/06/30 03:36:20;;;;;;;2.83;0.88;;;;;;;17.58;53.42;94225.59;4962401;28;20090;-93
2022/06/30 03:38:45;;;;;;;3.55;0.77;;;;;;;17.60;50.76;94228.69;4946446;28;20029;-94
2022/06/30 03:41:11;;;;;;;2.22;0.60;;;;;;;17.60;50.86;94220.75;4946376;28;20070;-94
2022/06/30 03:43:37;;;;;;;1.52;0.70;;;;;;;17.67;52.55;94225.56;4945955;28;20031;-95
2022/06/30 03:46:02;;;;;;;1.33;0.68;;;;;;;17.51;54.39;94225.31;4978313;28;20077;-94
2022/06/30 03:48:28;;;;;;;1.45;0.75;;;;;;;17.50;55.62;94221.88;4962200;28;20074;-94
2022/06/30 03:50:53;;;;;;;2.15;0.63;;;;;;;17.60;57.48;94227.94;4945942;28;20069;-94
2022/06/30 03:53:19;;;;;;;2.75;0.68;;;;;;;17.58;55.42;94220.28;4946358;28;20026;-94
2022/06/30 03:55:44;;;;;;;3.35;0.73;;;;;;;17.59;56.79;94216.53;4946334;28;20027;-95
2022/06/30 03:58:10;;;;;;;1.90;0.70;;;;;;;17.55;57.11;94222.78;4946449;28;20074;-95
2022/06/30 04:00:36;;;;;;;4.40;0.73;;;;;;;17.60;56.26;94223.41;4962157;28;20093;-95
2022/06/30 04:03:02;;;;;;;1.83;0.70;;;;;;;17.55;57.74;94212.19;4930156;28;20030;-94
2022/06/30 04:05:28;;;;;;;4.03;1.17;;;;;;;17.50;55.21;94218.41;4945469;28;20045;-94
2022/06/30 04:07:54;;;;;;;2.67;1.00;;;;;;;17.30;56.08;94212.69;4961770;28;20519;-95
2022/06/30 04:10:19;;;;;;;2.17;0.98;;;;;;;17.22;55.08;94218.78;4961950;28;20081;-95
2022/06/30 04:12:45;;;;;;;4.20;1.30;;;;;;;17.37;56.61;94222.81;4961647;28;20050;-95
2022/06/30 04:15:10;;;;;;;3.30;0.85;;;;;;;17.29;57.48;94224.38;4945742;28;20026;-95
2022/06/30 04:17:36;;;;;;;4.88;0.80;;;;;;;17.45;57.78;94226.53;4961744;28;20026;-94
2022/06/30 04:20:15;;;;;;;2.72;0.80;;;;;;;17.57;54.38;94228.53;4978637;28;20035;-92
2022/06/30 04:22:44;;;;;;;3.80;0.73;;;;;;;17.67;54.64;94226.34;4961320;28;20027;-92
2022/06/30 04:25:10;;;;;;;2.03;0.50;;;;;;;17.74;56.20;94228.53;4960918;28;20073;-92
2022/06/30 04:27:36;;;;;;;2.10;0.90;;;;;;;17.86;54.68;94230.50;4961065;28;20109;-92
2022/06/30 04:30:02;;;;;;;10.00;1.10;;;;;;;17.91;53.56;94226.91;4961057;28;20116;-91
2022/06/30 04:32:41;;;;;;;2.33;0.75;;;;;;;17.95;55.96;94228.59;4961188;28;20395;-92
2022/06/30 04:35:09;;;;;;;1.58;0.75;;;;;;;18.08;56.88;94229.53;4962793;28;20317;-91
2022/06/30 04:37:35;;;;;;;0.88;0.60;;;;;;;18.04;58.24;94225.16;4961064;28;20026;-91
2022/06/30 04:42:44;;;;;;;2.78;0.60;;;;;;;17.97;62.60;94225.63;4963362;28;20161;-91
2022/06/30 04:45:10;;;;;;;5.30;1.08;;;;;;;17.99;64.43;94231.38;4961256;28;20082;-90
2022/06/30 04:47:40;;;;;;;4.57;0.93;;;;;;;18.11;63.55;94235.28;4960886;28;20031;-91
2022/06/30 04:50:06;;;;;;;4.35;0.90;;;;;;;17.95;66.39;94227.81;4961089;28;20328;-91
2022/06/30 04:52:34;;;;;;;2.58;0.90;;;;;;;17.91;64.68;94237.50;4960675;28;20030;-92
2022/06/30 04:55:00;;;;;;;3.05;0.90;;;;;;;18.00;67.21;94232.94;4960955;28;20023;-90
2022/06/30 04:57:29;;;;;;;1.58;0.50;;;;;;;18.26;56.93;94233.97;4960838;28;20032;-93
2022/06/30 04:59:54;;;;;;;2.58;0.73;;;;;;;18.44;56.51;94222.19;4978189;28;20028;-92
2022/06/30 05:02:20;;;;;;;5.68;0.90;;;;;;;18.87;52.16;94230.97;4978021;28;20083;-93
2022/06/30 05:04:45;;;;;;;6.28;0.70;;;;;;;18.82;53.42;94231.16;4960399;28;20109;-92
2022/06/30 05:07:11;;;;;;;1.60;0.75;;;;;;;18.82;56.29;94225.84;4960476;28;20085;-94
2022/06/30 05:09:36;;;;;;;1.40;0.63;;;;;;;18.67;63.25;94234.38;4944434;28;20451;-92
2022/06/30 05:12:03;;;;;;;2.08;1.00;;;;;;;18.49;68.10;94240.56;4960484;28;20023;-92
2022/06/30 05:14:28;;;;;;;3.75;0.95;;;;;;;18.50;61.78;94238.69;4960171;28;20050;-92
2022/06/30 05:16:54;;;;;;;1.83;0.70;;;;;;;18.73;58.75;94231.22;4960639;28;20061;-92
2022/06/30 05:19:19;;;;;;;4.38;0.88;;;;;;;18.94;63.46;94239.19;4963220;28;20082;-91
2022/06/30 05:21:44;;;;;;;3.58;0.65;;;;;;;18.97;62.31;94231.69;4964277;28;20435;-90
2022/06/30 05:26:54;;;;;;;5.00;1.05;;;;;;;19.27;59.93;94234.28;4966891;28;20110;-91
2022/06/30 05:29:19;;;;;;;3.70;0.77;;;;;;;19.21;64.88;94236.34;4964204;28;20109;-92
2022/06/30 05:31:45;;;;;;;2.72;0.85;;;;;;;19.23;73.99;94242.16;4981682;28;20085;-91
2022/06/30 05:34:12;;;;;;;1.17;0.57;;;;;;;19.63;77.69;94235.53;4980690;28;20031;-93
2022/06/30 05:36:39;;;;;;;2.70;0.85;;;;;;;19.74;75.86;94251.81;4959635;28;20038;-91
2022/06/30 05:39:05;;;;;;;2.05;0.73;;;;;;;19.47;60.97;94240.66;4963684;28;20031;-91
2022/06/30 05:41:30;;;;;;;6.65;0.90;;;;;;;19.48;64.92;94243.00;4963140;28;20403;-93
2022/06/30 05:43:55;;;;;;;3.42;0.93;;;;;;;19.54;77.11;94248.13;4980204;28;20054;-90
2022/06/30 05:46:21;;;;;;;2.28;0.70;;;;;;;19.78;95.41;94253.50;4963943;28;20030;-92
2022/06/30 05:48:47;;;;;;;3.38;0.75;;;;;;;20.19;83.51;94240.41;4981187;28;20494;-92
2022/06/30 05:51:20;;;;;;;6.13;1.05;;;;;;;20.38;67.91;94238.31;4969624;28;20527;-92
2022/06/30 05:53:45;;;;;;;0.85;0.68;;;;;;;20.53;69.74;94250.19;4961637;29;20413;-91
2022/06/30 05:56:12;;;;;;;2.80;0.70;;;;;;;20.55;69.39;94248.72;4928491;29;20058;-91
2022/06/30 05:58:37;;;;;;;2.42;0.85;;;;;;;20.57;75.23;94251.06;4944237;29;20035;-92
2022/06/30 06:01:03;;;;;;;3.25;0.70;;;;;;;20.92;70.96;94247.94;4944408;29;20027;-91
2022/06/30 06:03:30;;;;;;;1.88;0.80;;;;;;;21.14;66.44;94244.00;4969582;28;20038;-91
2022/06/30 06:05:55;;;;;;;10.98;0.90;;;;;;;20.96;76.02;94248.84;4981088;28;20042;-91
2022/06/30 06:08:22;;;;;;;3.10;0.90;;;;;;;20.65;89.34;94246.72;4963608;28;20022;-92
2022/06/30 06:10:48;;;;;;;4.50;0.80;;;;;;;20.84;93.81;94251.50;4963219;28;20185;-90
2022/06/30 06:13:14;;;;;;;6.63;0.90;;;;;;;21.22;73.52;94252.97;4980760;28;20057;-90
2022/06/30 06:15:40;;;;;;;1.23;0.60;;;;;;;21.45;69.54;94241.78;4963421;28;20427;-89
2022/06/30 06:18:05;;;;;;;1.50;0.70;;;;;;;21.52;69.69;94251.88;4963642;28;20033;-90
2022/06/30 06:20:31;;;;;;;3.05;0.90;;;;;;;21.55;68.10;94254.63;4963095;28;20170;-90
2022/06/30 06:22:57;;;;;;;5.78;0.93;;;;;;;21.34;72.11;94252.16;4980340;28;20034;-90
2022/06/30 06:25:23;;;;;;;4.25;0.80;;;;;;;21.56;73.11;94256.19;4947771;28;20426;-90
2022/06/30 06:30:32;;;;;;;5.75;0.90;;;;;;;21.64;82.98;94259.03;4965377;28;20340;-90
2022/06/30 06:32:58;;;;;;;2.80;0.95;;;;;;;21.68;86.62;94268.69;4962671;28;20034;-91
2022/06/30 06:35:23;;;;;;;2.45;0.77;;;;;;;21.86;82.79;94271.06;4963204;28;20034;-90
2022/06/30 06:37:49;;;;;;;1.98;0.73;;;;;;;21.75;87.03;94268.13;4947671;28;20031;-88
2022/06/30 06:40:15;;;;;;;6.28;0.90;;;;;;;21.97;80.44;94274.00;4947095;28;20031;-89
2022/06/30 06:42:40;;;;;;;0.73;0.60;;;;;;;22.17;72.01;94267.66;4947299;28;20033;-88
2022/06/30 06:45:06;;;;;;;1.55;0.70;;;;;;;22.21;66.55;94269.63;4947139;28;20027;-88
2022/06/30 06:47:32;;;;;;;4.25;0.70;;;;;;;22.23;68.95;94268.19;4980127;28;20030;-89
2022/06/30 06:49:58;;;;;;;7.63;1.20;;;;;;;22.25;73.53;94271.28;4962943;28;20447;-89
2022/06/30 06:52:24;;;;;;;6.38;1.25;;;;;;;22.27;75.24;94268.25;4947384;28;20344;-89
2022/06/30 06:54:50;;;;;;;4.40;0.90;;;;;;;22.27;70.59;94268.25;4979753;28;20046;-89
2022/06/30 06:57:15;;;;;;;3.05;1.00;;;;;;;22.39;65.86;94275.41;4979831;28;20503;-90
2022/06/30 06:59:41;;;;;;;5.78;1.08;;;;;;;22.54;64.52;94277.31;4962465;28;20027;-88
2022/06/30 07:02:06;;;;;;;2.08;0.98;;;;;;;22.31;75.99;94272.56;4962582;28;20448;-89
2022/06/30 07:04:32;;;;;;;3.88;0.85;;;;;;;22.34;92.11;94273.75;4962354;28;20089;-90
2022/06/30 07:06:57;;;;;;;3.33;0.85;;;;;;;22.39;81.59;94278.84;4946312;28;20042;-89
2022/06/30 07:09:23;;;;;;;5.60;1.02;;;;;;;22.57;89.24;94281.94;4979576;28;20081;-89
2022/06/30 07:11:49;;;;;;;3.42;1.20;;;;;;;22.56;87.74;94288.41;4943567;29;20078;-89
2022/06/30 07:14:14;;;;;;;7.18;1.30;;;;;;;22.66;89.02;94284.44;4960707;29;20035;-89
2022/06/30 07:16:40;;;;;;;5.03;1.15;;;;;;;22.83;91.98;94283.31;4942966;29;20027;-88
2022/06/30 07:19:05;;;;;;;6.65;1.42;;;;;;;23.05;82.39;94283.78;4943166;29;20049;-89
2022/06/30 07:21:30;;;;;;;6.35;1.45;;;;;;;23.22;84.21;94285.25;4972695;28;20030;-88
2022/06/30 07:23:56;;;;;;;5.43;1.30;;;;;;;23.46;93.25;94296.84;4999220;28;20077;-89
2022/06/30 07:26:21;;;;;;;4.38;1.42;;;;;;;23.55;86.63;94281.38;4998958;28;20034;-88
2022/06/30 07:28:50;;;;;;;4.35;1.48;;;;;;;23.67;92.17;94277.00;4985052;28;20041;-88
2022/06/30 07:31:20;;;;;;;4.82;1.50;;;;;;;23.79;87.56;94282.19;4978032;28;20539;-89
2022/06/30 07:33:46;;;;;;;5.63;1.13;;;;;;;23.93;90.15;94276.34;4947629;28;20022;-88
2022/06/30 07:36:12;;;;;;;6.30;1.48;;;;;;;23.95;79.37;94275.97;4970600;28;20041;-89
2022/06/30 07:38:40;;;;;;;6.45;1.92;;;;;;;23.84;71.66;94276.56;4962440;28;20125;-88
2022/06/30 07:41:05;;;;;;;8.48;1.55;;;;;;;23.90;82.06;94281.63;4978331;28;20030;-88
2022/06/30 07:43:33;;;;;;;8.02;1.83;;;;;;;24.03;78.59;94277.69;4979014;28;20027;-89
2022/06/30 07:46:04;;;;;;;7.82;2.20;;;;;;;24.13;80.02;94274.44;4946333;28;20027;-90
2022/06/30 07:48:30;;;;;;;8.05;1.90;;;;;;;24.24;83.85;94282.63;4961677;28;20061;-89
2022/06/30 07:50:57;;;;;;;5.85;2.13;;;;;;;24.01;81.99;94274.56;4979250;28;20026;-89
2022/06/30 07:53:23;;;;;;;5.50;1.88;;;;;;;24.12;80.12;94270.22;4979315;28;20058;-91
2022/06/30 07:55:48;;;;;;;16.52;2.55;;;;;;;24.37;80.96;94274.41;4978663;28;20066;-88
2022/06/30 07:58:14;;;;;;;12.00;2.50;;;;;;;24.44;78.23;94269.16;4962016;28;20038;-89
2022/06/30 08:00:39;;;;;;;9.60;2.10;;;;;;;24.37;81.30;94269.06;4979177;28;20093;-87
2022/06/30 08:03:07;;;;;;;9.23;2.00;;;;;;;24.38;77.41;94271.38;4978955;28;20026;-90
2022/06/30 08:05:32;;;;;;;9.15;2.15;;;;;;;24.49;76.08;94268.88;4961853;28;20470;-89
2022/06/30 08:07:58;;;;;;;10.60;2.13;;;;;;;24.43;75.59;94264.94;4948366;29;20039;-90
2022/06/30 08:10:23;;;;;;;8.10;2.08;;;;;;;24.16;75.49;94264.13;4959454;29;20058;-91
2022/06/30 08:12:49;;;;;;;12.32;2.35;;;;;;;24.49;94.29;94265.41;4959269;29;20035;-89
2022/06/30 08:15:16;;;;;;;8.02;2.60;;;;;;;24.47;96.46;94265.78;4942213;29;20086;-88
2022/06/30 08:17:42;;;;;;;7.10;2.17;;;;;;;24.34;87.12;94264.44;4964594;28;20037;-89
2022/06/30 08:20:08;;;;;;;7.15;2.08;;;;;;;24.77;81.05;94269.69;4960975;28;20038;-89
2022/06/30 08:22:33;;;;;;;7.53;2.35;;;;;;;24.74;100.00;94265.03;4978478;28;20109;-88
2022/06/30 08:24:59;;;;;;;6.88;2.10;;;;;;;24.96;95.48;94271.47;4978290;28;20034;-90
2022/06/30 08:27:25;;;;;;;10.63;2.20;;;;;;;25.13;100.00;94270.19;4978301;28;20062;-89
2022/06/30 08:29:50;;;;;;;10.00;2.63;;;;;;;25.17;83.89;94267.53;4978150;28;20399;-89
2022/06/30 08:32:16;;;;;;;9.32;2.40;;;;;;;25.36;95.58;94258.56;4961199;28;20373;-88
2022/06/30 08:34:42;;;;;;;7.20;2.35;;;;;;;25.45;83.49;94271.69;4961013;28;20046;-88
2022/06/30 08:37:08;;;;;;;6.85;2.03;;;;;;;25.32;72.06;94263.91;4961051;28;20042;-88
2022/06/30 08:42:20;;;;;;;21.65;9.98;;;;;;;25.35;71.66;94273.13;4963511;28;20038;-89
2022/06/30 08:47:30;;;;;;;6.28;1.83;;;;;;;25.42;87.37;94275.91;4944477;29;20474;-88
2022/06/30 08:49:55;;;;;;;11.73;2.03;;;;;;;25.66;76.32;94274.66;4958580;29;20031;-89
2022/06/30 08:52:21;;;;;;;5.28;1.95;;;;;;;25.77;71.32;94277.47;4972655;28;20121;-90
2022/06/30 08:54:49;;;;;;;7.00;1.67;;;;;;;25.64;70.49;94266.22;4960073;28;20031;-88
2022/06/30 08:57:15;;;;;;;7.57;2.28;;;;;;;25.70;70.70;94274.72;4961209;28;20026;-88
2022/06/30 08:59:41;;;;;;;4.75;1.80;;;;;;;25.92;90.57;94266.88;4977953;28;20039;-88
2022/06/30 09:02:16;;;;;;;5.47;1.98;;;;;;;25.88;74.79;94266.84;4960741;28;20059;-88
2022/06/30 09:04:42;;;;;;;5.03;1.52;;;;;;;25.96;75.53;94271.16;4960571;28;20350;-88
2022/06/30 09:07:07;;;;;;;8.35;1.77;;;;;;;26.05;68.94;94268.16;4945059;28;20041;-89
2022/06/30 09:09:32;;;;;;;7.93;2.13;;;;;;;26.18;74.57;94271.38;4960790;28;20035;-90
2022/06/30 09:11:58;;;;;;;8.00;2.20;;;;;;;26.37;76.70;94275.75;4960489;28;20026;-89
2022/06/30 09:14:37;;;;;;;6.88;1.80;;;;;;;26.25;72.89;94270.66;4960208;28;20055;-87
2022/06/30 09:17:05;;;;;;;6.28;2.22;;;;;;;26.34;75.45;94276.50;4977849;28;20034;-87
2022/06/30 09:19:31;;;;;;;11.27;2.05;;;;;;;26.08;76.27;94269.34;4960690;28;20431;-86
2022/06/30 09:22:10;;;;;;;7.20;2.30;;;;;;;26.13;77.19;94270.91;4977785;28;20039;-86
2022/06/30 09:24:36;;;;;;;16.48;2.90;;;;;;;26.35;80.09;94278.03;4960109;28;20082;-85
2022/06/30 09:27:22;;;;;;;6.43;2.28;;;;;;;26.36;78.39;94274.19;4960619;28;20420;-86
2022/06/30 09:29:51;;;;;;;12.13;2.08;;;;;;;26.35;76.29;94272.66;4960124;28;20046;-88
2022/06/30 09:32:17;;;;;;;5.85;2.03;;;;;;;26.38;78.84;94269.22;4960303;28;20035;-85
2022/06/30 09:34:43;;;;;;;8.00;1.90;;;;;;;26.60;79.37;94274.00;4976916;28;20352;-87
2022/06/30 09:37:24;;;;;;;9.63;2.13;;;;;;;26.61;73.29;94281.69;4976834;28;20042;-85
2022/06/30 09:39:51;;;;;;;12.38;2.33;;;;;;;26.11;71.74;94273.97;4977551;28;20069;-85
2022/06/30 09:42:46;;;;;;;7.57;2.50;;;;;;;26.54;83.88;94279.72;4960221;28;20045;-88
2022/06/30 09:45:15;;;;;;;7.32;2.20;;;;;;;26.54;81.76;94276.28;4977661;28;20029;-86
2022/06/30 09:47:54;;;;;;;11.45;2.45;;;;;;;26.61;74.71;94275.53;4960158;28;20348;-87
2022/06/30 09:50:20;;;;;;;10.57;2.05;;;;;;;26.71;75.58;94282.16;4959908;28;20031;-87
2022/06/30 09:52:45;;;;;;;7.32;2.15;;;;;;;26.96;75.56;94280.41;4959839;28;20034;-87
2022/06/30 09:55:12;;;;;;;6.28;2.03;;;;;;;27.02;77.37;94283.50;4960335;28;20031;-85
2022/06/30 09:57:44;;;;;;;7.82;2.25;;;;;;;27.18;76.47;94283.22;4944751;28;20042;-88
2022/06/30 10:00:12;;;;;;;8.70;2.37;;;;;;;27.22;76.05;94284.00;4977360;28;20051;-87
2022/06/30 10:02:41;;;;;;;10.20;1.92;;;;;;;27.29;71.41;94271.75;4977538;28;20042;-87
2022/06/30 10:05:09;;;;;;;8.95;2.08;;;;;;;27.23;70.02;94277.47;4974562;28;20186;-87
2022/06/30 10:07:35;;;;;;;13.32;2.08;;;;;;;27.27;74.53;94269.44;4944086;29;20031;-87
2022/06/30 10:10:04;;;;;;;6.25;2.03;;;;;;;27.15;73.50;94267.06;4928501;29;20058;-87
2022/06/30 10:12:30;;;;;;;10.35;2.17;;;;;;;27.22;71.16;94267.88;4928479;29;20030;-86
2022/06/30 10:14:56;;;;;;;10.20;2.78;;;;;;;27.22;68.60;94272.50;4931024;28;20023;-88
2022/06/30 10:17:27;;;;;;;11.80;2.50;;;;;;;27.20;72.94;94277.47;4963110;28;20043;-87
2022/06/30 10:19:53;;;;;;;6.75;1.90;;;;;;;27.19;65.60;94279.38;4963596;28;20380;-87
2022/06/30 10:22:22;;;;;;;11.50;2.20;;;;;;;27.37;65.56;94276.00;4963630;28;20030;-87
2022/06/30 10:24:48;;;;;;;6.38;1.85;;;;;;;27.38;65.30;94275.63;4947681;28;20034;-88
2022/06/30 10:27:14;;;;;;;8.02;1.90;;;;;;;27.54;67.82;94271.09;4963505;28;20130;-87
2022/06/30 10:29:44;;;;;;;7.85;2.20;;;;;;;27.12;70.92;94271.28;4963735;28;20031;-88
2022/06/30 10:32:30;;;;;;;7.70;2.45;;;;;;;27.26;69.24;94269.81;4947393;28;20046;-86
2022/06/30 10:35:05;;;;;;;4.13;1.90;;;;;;;27.58;67.57;94264.59;4963417;28;20030;-87
2022/06/30 10:37:41;;;;;;;10.70;2.63;;;;;;;27.85;74.01;94266.22;4963274;28;20022;-88
2022/06/30 10:40:12;;;;;;;12.52;2.00;;;;;;;27.86;70.51;94260.44;4963731;28;20352;-87
2022/06/30 10:42:45;;;;;;;7.90;1.98;;;;;;;27.77;68.81;94265.44;4963302;28;20043;-87
2022/06/30 10:45:30;;;;;;;7.22;2.15;;;;;;;27.78;68.01;94261.59;4962727;28;20066;-87
2022/06/30 10:48:05;;;;;;;7.68;1.90;;;;;;;27.87;66.82;94256.59;4966352;28;20047;-86
2022/06/30 10:50:33;;;;;;;12.25;2.50;;;;;;;27.90;66.07;94268.53;4963025;28;20031;-86
2022/06/30 10:52:59;;;;;;;8.82;2.15;;;;;;;27.99;61.42;94268.94;4962736;28;20040;-88
2022/06/30 10:55:24;;;;;;;6.30;1.80;;;;;;;28.05;55.65;94250.47;4962740;28;20114;-85
2022/06/30 10:58:05;;;;;;;9.80;1.92;;;;;;;28.04;57.10;94249.69;4980087;28;20090;-84
2022/06/30 11:01:04;;;;;;;5.35;2.17;;;;;;;28.13;60.71;94251.25;4962844;28;20046;-87
2022/06/30 11:03:34;;;;;;;10.10;2.38;;;;;;;28.02;62.47;94253.91;4952164;28;20443;-90
2022/06/30 11:06:05;;;;;;;11.80;2.35;;;;;;;27.82;61.72;94248.09;4979589;28;20082;-88
2022/06/30 11:08:38;;;;;;;8.32;1.95;;;;;;;27.82;69.61;94250.81;4962900;28;20026;-89
2022/06/30 11:11:28;;;;;;;9.18;1.77;;;;;;;28.31;65.55;94245.88;4979699;28;20070;-89
2022/06/30 11:14:02;;;;;;;9.18;1.98;;;;;;;28.24;59.80;94248.59;4962225;28;20129;-89
2022/06/30 11:16:29;;;;;;;11.88;2.72;;;;;;;28.46;64.89;94246.66;4962055;28;20033;-90
2022/06/30 11:18:55;;;;;;;5.13;1.90;;;;;;;28.72;61.60;94256.25;4962315;28;20347;-89
2022/06/30 11:21:21;;;;;;;4.72;1.83;;;;;;;28.73;65.62;94248.94;4962637;28;20039;-91
2022/06/30 11:23:47;;;;;;;9.88;2.33;;;;;;;28.74;65.20;94253.19;4962189;28;20031;-89
2022/06/30 11:28:59;;;;;;;5.90;1.75;;;;;;;28.95;57.37;94254.31;4979413;28;20081;-89
2022/06/30 11:31:32;;;;;;;12.23;2.13;;;;;;;28.73;59.93;94248.94;4962263;28;20014;-89
2022/06/30 11:34:04;;;;;;;9.30;2.08;;;;;;;28.95;59.13;94249.72;4961464;28;20027;-89
2022/06/30 11:36:33;;;;;;;10.40;2.10;;;;;;;28.73;58.98;94251.66;4962230;28;20038;-90
2022/06/30 11:39:14;;;;;;;3.10;1.50;;;;;;;29.01;50.30;94252.78;4961265;28;20031;-88
2022/06/30 11:44:37;;;;;;;4.20;1.30;;;;;;;29.26;48.96;94249.22;4964272;28;20033;-89
2022/06/30 11:47:06;;;;;;;2.38;1.38;;;;;;;29.28;49.36;94249.63;4946559;28;20030;-90
2022/06/30 11:50:01;;;;;;;4.20;1.58;;;;;;;28.79;54.91;94255.47;4979136;28;20355;-89
2022/06/30 11:52:35;;;;;;;10.30;1.65;;;;;;;29.03;54.05;94245.06;4945739;28;20042;-89
2022/06/30 11:55:05;;;;;;;4.72;1.42;;;;;;;28.95;54.50;94248.91;4979118;28;20066;-91